North Berwick, Maine
Current Conditions -  °F | °C
As of 2:55 PM on Friday 24 Oct 2014 (Local Time) from KSFM Reporting Station
Overcast Overcast  
Wind Chill: 52°   Ceiling: 2700
Heat Index: 52°   Visibility: 10mi
Dew Point: 43°   Wind: 12mph
Humidity: 71%   Direction: 360°N
Pressure: 29.66"   Gusts: NA
Location:  43.3°N, 70.73°W
Report Text: KSFM 241855Z AUTO 36010KT 10SM SCT019 BKN027 OVC070 11/06 A2966 RMK AO1
Loading
Personal Weather Stations






























Interactive Weather Map
Tropical Storm Tracking
New forecast layout! Learn more

10-Day Weather Forecast

Advertisements
Track Severe Weather on mobile